createdAt,value
2022-08-03T00:00:29.471Z,19.05
2022-08-03T00:02:56.541Z,19.05
2022-08-03T00:05:23.338Z,19.07
2022-08-03T00:07:50.126Z,19.04
2022-08-03T00:10:17.387Z,19.07
2022-08-03T00:12:44.270Z,19.04
2022-08-03T00:15:16.593Z,19.04
2022-08-03T00:17:52.597Z,18.99
2022-08-03T00:20:20.132Z,18.93
2022-08-03T00:22:46.949Z,18.97
2022-08-03T00:25:13.963Z,18.95
2022-08-03T00:27:40.717Z,18.96
2022-08-03T00:30:08.415Z,18.93
2022-08-03T00:32:35.106Z,18.95
2022-08-03T00:35:07.869Z,18.93
2022-08-03T00:37:41.356Z,18.97
2022-08-03T00:40:13.713Z,18.97
2022-08-03T00:42:54.734Z,18.95
2022-08-03T00:45:25.449Z,18.97
2022-08-03T00:47:52.693Z,19.00
2022-08-03T00:50:23.022Z,19.01
2022-08-03T00:52:52.635Z,19.03
2022-08-03T00:55:19.865Z,19.04
2022-08-03T00:57:46.965Z,19.06
2022-08-03T01:00:16.694Z,19.07
2022-08-03T01:02:43.876Z,19.07
2022-08-03T01:05:11.056Z,19.09
2022-08-03T01:07:49.941Z,19.10
2022-08-03T01:10:22.717Z,19.10
2022-08-03T01:13:02.646Z,19.11
2022-08-03T01:15:58.774Z,19.09
2022-08-03T01:18:59.808Z,19.08
2022-08-03T01:21:34.055Z,19.07
2022-08-03T01:24:22.289Z,19.09
2022-08-03T01:26:54.306Z,19.06
2022-08-03T01:29:55.129Z,19.05
2022-08-03T01:32:58.153Z,19.03
2022-08-03T01:35:26.119Z,19.00
2022-08-03T01:38:04.790Z,19.02
2022-08-03T01:40:34.519Z,19.03
2022-08-03T01:43:04.632Z,18.99
2022-08-03T01:45:34.232Z,19.04
2022-08-03T01:48:02.665Z,19.04
2022-08-03T01:50:31.972Z,19.04
2022-08-03T01:52:59.640Z,19.04
2022-08-03T01:55:30.012Z,19.05
2022-08-03T01:58:05.800Z,19.05
2022-08-03T02:00:36.931Z,19.06
2022-08-03T02:03:06.309Z,19.04
2022-08-03T02:05:34.163Z,18.99
2022-08-03T02:08:03.585Z,19.03
2022-08-03T02:10:34.884Z,19.05
2022-08-03T02:13:05.182Z,19.03
2022-08-03T02:15:33.864Z,19.04
2022-08-03T02:18:03.258Z,19.05
2022-08-03T02:20:33.261Z,19.04
2022-08-03T02:23:00.398Z,19.05
2022-08-03T02:25:28.374Z,19.04
2022-08-03T02:27:57.986Z,19.04
2022-08-03T02:30:38.553Z,19.07
2022-08-03T02:33:10.950Z,19.06
2022-08-03T02:35:40.077Z,19.05
2022-08-03T02:38:10.272Z,19.07
2022-08-03T02:40:38.688Z,19.09
2022-08-03T02:43:12.486Z,19.10
2022-08-03T02:45:45.916Z,19.11
2022-08-03T02:48:23.233Z,19.11
2022-08-03T02:50:53.068Z,19.10
2022-08-03T02:53:21.634Z,19.15
2022-08-03T02:55:50.153Z,19.18
2022-08-03T02:58:21.275Z,19.17
2022-08-03T03:00:49.669Z,19.19
2022-08-03T03:03:16.585Z,19.22
2022-08-03T03:05:54.518Z,19.26
2022-08-03T03:08:28.654Z,19.27
2022-08-03T03:10:59.451Z,19.30
2022-08-03T03:13:28.857Z,19.34
2022-08-03T03:15:57.772Z,19.34
2022-08-03T03:18:27.515Z,19.36
2022-08-03T03:20:55.810Z,19.39
2022-08-03T03:23:24.983Z,19.43
2022-08-03T03:25:53.312Z,19.47
2022-08-03T03:28:20.896Z,19.52
2022-08-03T03:30:52.726Z,19.55
2022-08-03T03:33:21.689Z,19.59
2022-08-03T03:35:48.858Z,19.65
2022-08-03T03:38:15.937Z,19.67
2022-08-03T03:40:43.152Z,19.71
2022-08-03T03:43:13.366Z,19.75
2022-08-03T03:45:43.596Z,19.79
2022-08-03T03:48:10.918Z,19.85
2022-08-03T03:50:41.075Z,19.90
2022-08-03T03:53:14.343Z,19.96
2022-08-03T03:55:59.111Z,20.01
2022-08-03T03:58:29.361Z,20.03
2022-08-03T04:00:56.298Z,20.16
2022-08-03T04:03:23.037Z,20.26
2022-08-03T04:06:08.994Z,20.37
2022-08-03T04:08:54.575Z,20.47
2022-08-03T04:11:38.664Z,20.56
2022-08-03T04:14:10.096Z,20.67
2022-08-03T04:16:43.690Z,20.73
2022-08-03T04:19:19.664Z,20.85
2022-08-03T04:21:53.035Z,20.94
2022-08-03T04:24:26.602Z,21.08
2022-08-03T04:26:56.230Z,21.20
2022-08-03T04:29:26.064Z,21.27
2022-08-03T04:31:55.784Z,21.36
2022-08-03T04:34:22.747Z,21.44
2022-08-03T04:36:55.178Z,21.50
2022-08-03T04:39:26.715Z,21.47
2022-08-03T04:42:02.184Z,21.40
2022-08-03T04:44:38.786Z,21.37
2022-08-03T04:47:05.784Z,21.28
2022-08-03T04:49:32.924Z,21.35
2022-08-03T04:51:59.972Z,21.41
2022-08-03T04:54:26.978Z,21.44
2022-08-03T04:56:53.763Z,21.36
2022-08-03T04:59:20.482Z,21.38
2022-08-03T05:01:47.423Z,21.29
2022-08-03T05:04:14.672Z,21.38
2022-08-03T05:06:48.149Z,21.44
2022-08-03T05:09:46.078Z,21.44
2022-08-03T05:12:06.082Z,21.62
2022-08-03T05:14:33.910Z,21.76
2022-08-03T05:17:00.680Z,22.01
2022-08-03T05:19:27.487Z,22.29
2022-08-03T05:21:54.341Z,22.48
2022-08-03T05:24:21.039Z,22.68
2022-08-03T05:26:47.892Z,22.84
2022-08-03T05:29:14.615Z,22.92
2022-08-03T05:31:41.556Z,22.95
2022-08-03T05:34:08.472Z,22.95
2022-08-03T05:36:35.232Z,22.93
2022-08-03T05:39:02.940Z,22.86
2022-08-03T05:41:36.791Z,22.85
2022-08-03T05:44:04.495Z,22.72
2022-08-03T05:46:31.420Z,22.99
2022-08-03T05:48:58.347Z,22.96
2022-08-03T05:51:25.153Z,23.22
2022-08-03T05:53:52.345Z,23.64
2022-08-03T05:56:23.799Z,23.94
2022-08-03T05:58:52.178Z,24.32
2022-08-03T06:01:21.892Z,24.66
2022-08-03T06:03:49.880Z,24.93
2022-08-03T06:06:17.194Z,25.18
2022-08-03T06:08:45.073Z,25.62
2022-08-03T06:11:12.962Z,25.89
2022-08-03T06:13:40.271Z,26.11
2022-08-03T06:16:07.157Z,26.28
2022-08-03T06:18:34.647Z,26.40
2022-08-03T06:21:14.787Z,26.56
2022-08-03T06:23:54.810Z,26.87
2022-08-03T06:26:27.006Z,27.39
2022-08-03T06:28:55.139Z,27.98
2022-08-03T06:31:25.975Z,28.28
2022-08-03T06:34:32.434Z,28.42
2022-08-03T06:36:48.497Z,28.60
2022-08-03T06:39:15.284Z,28.69
2022-08-03T06:41:44.912Z,28.79
2022-08-03T06:44:12.371Z,28.92
2022-08-03T06:46:39.358Z,29.08
2022-08-03T06:49:07.480Z,29.21
2022-08-03T06:52:06.174Z,29.33
2022-08-03T06:54:22.303Z,29.22
2022-08-03T06:56:49.322Z,29.01
2022-08-03T07:00:07.553Z,29.12
2022-08-03T07:02:03.863Z,29.34
2022-08-03T07:04:30.715Z,29.42
2022-08-03T07:06:58.558Z,29.56
2022-08-03T07:09:26.914Z,29.69
2022-08-03T07:11:54.563Z,29.88
2022-08-03T07:14:21.797Z,30.05
2022-08-03T07:16:49.734Z,30.19
2022-08-03T07:19:16.853Z,30.28
2022-08-03T07:21:43.712Z,30.27
2022-08-03T07:24:10.478Z,30.30
2022-08-03T07:26:37.197Z,30.72
2022-08-03T07:29:04.050Z,31.08
2022-08-03T07:31:42.242Z,31.55
2022-08-03T07:34:09.240Z,32.19
2022-08-03T07:36:36.056Z,33.37
2022-08-03T07:39:17.747Z,35.04
2022-08-03T07:41:45.495Z,36.65
2022-08-03T07:44:21.810Z,37.42
2022-08-03T07:46:48.619Z,38.32
2022-08-03T07:49:15.363Z,38.49
2022-08-03T07:51:42.321Z,38.91
2022-08-03T07:54:10.238Z,38.85
2022-08-03T07:56:37.566Z,39.66
2022-08-03T07:59:04.404Z,40.44
2022-08-03T08:01:35.940Z,40.46
2022-08-03T08:04:02.803Z,40.68
2022-08-03T08:06:29.810Z,40.69
2022-08-03T08:09:01.731Z,40.04
2022-08-03T08:11:28.490Z,40.00
2022-08-03T08:13:55.276Z,40.13
2022-08-03T08:16:22.034Z,40.20
2022-08-03T08:18:48.800Z,40.33
2022-08-03T08:21:15.593Z,41.02
2022-08-03T08:23:46.227Z,40.78
2022-08-03T08:26:17.331Z,40.41
2022-08-03T08:28:44.230Z,40.10
2022-08-03T08:31:11.042Z,39.71
2022-08-03T08:34:02.676Z,39.15
2022-08-03T08:36:24.685Z,38.48
2022-08-03T08:38:51.520Z,38.08
2022-08-03T08:41:18.356Z,37.67
2022-08-03T08:43:45.081Z,37.15
2022-08-03T08:46:13.114Z,36.48
2022-08-03T08:48:52.071Z,35.91
2022-08-03T08:51:20.702Z,35.47
2022-08-03T08:53:51.488Z,35.05
2022-08-03T08:56:19.956Z,34.74
2022-08-03T08:58:51.798Z,34.40
2022-08-03T09:01:19.525Z,34.19
2022-08-03T09:03:47.738Z,34.00
2022-08-03T09:06:15.183Z,33.77
2022-08-03T09:08:42.030Z,34.26
2022-08-03T09:11:09.599Z,34.70
2022-08-03T09:13:39.285Z,34.90
2022-08-03T09:16:20.311Z,35.01
2022-08-03T09:18:53.145Z,35.38
2022-08-03T09:21:32.931Z,35.52
2022-08-03T09:24:04.795Z,35.90
2022-08-03T09:26:34.298Z,36.76
2022-08-03T09:32:03.020Z,36.12
2022-08-03T09:34:30.721Z,35.10
2022-08-03T09:37:00.706Z,35.01
2022-08-03T09:39:42.184Z,35.54
2022-08-03T09:42:15.070Z,35.13
2022-08-03T09:44:44.673Z,34.51
2022-08-03T09:47:13.265Z,33.39
2022-08-03T09:49:42.087Z,32.95
2022-08-03T09:52:32.222Z,32.65
2022-08-03T09:55:02.910Z,33.30
2022-08-03T09:57:31.148Z,34.20
2022-08-03T10:00:12.723Z,34.59
2022-08-03T10:02:41.651Z,35.02
2022-08-03T10:05:10.580Z,34.87
2022-08-03T10:07:46.032Z,34.96
2022-08-03T10:10:28.891Z,36.00
2022-08-03T10:13:00.371Z,36.81
2022-08-03T10:16:22.448Z,36.97
2022-08-03T10:18:14.741Z,36.43
2022-08-03T10:20:50.023Z,35.88
2022-08-03T10:23:18.287Z,35.46
2022-08-03T10:25:48.496Z,35.34
2022-08-03T10:28:18.451Z,35.48
2022-08-03T10:30:49.293Z,35.25
2022-08-03T10:33:51.416Z,34.64
2022-08-03T10:36:13.898Z,33.23
2022-08-03T10:38:49.665Z,32.94
2022-08-03T10:41:20.641Z,32.21
2022-08-03T10:43:59.165Z,31.84
2022-08-03T10:46:27.419Z,31.58
2022-08-03T10:48:56.680Z,31.24
2022-08-03T10:51:24.246Z,30.89
2022-08-03T10:53:54.658Z,30.96
2022-08-03T10:56:54.401Z,30.75
2022-08-03T10:59:59.472Z,30.82
2022-08-03T11:03:06.225Z,30.46
2022-08-03T11:05:53.653Z,30.33
2022-08-03T11:08:24.439Z,29.50
2022-08-03T11:10:53.860Z,27.99
2022-08-03T11:13:22.968Z,27.01
2022-08-03T11:15:52.965Z,26.31
2022-08-03T11:18:27.424Z,25.67
2022-08-03T11:20:59.440Z,25.06
2022-08-03T11:24:03.338Z,24.38
2022-08-03T11:26:33.798Z,24.04
2022-08-03T11:29:29.628Z,23.73
2022-08-03T11:31:56.752Z,23.63
2022-08-03T11:34:24.684Z,23.61
2022-08-03T11:37:30.178Z,23.76
2022-08-03T11:39:59.765Z,24.20
2022-08-03T11:42:27.185Z,24.96
2022-08-03T11:44:55.971Z,25.97
2022-08-03T11:47:24.462Z,27.15
2022-08-03T11:49:53.992Z,27.74
2022-08-03T11:52:26.940Z,27.76
2022-08-03T11:54:57.197Z,27.37
2022-08-03T11:59:18.874Z,27.21
2022-08-03T12:00:32.761Z,26.35
2022-08-03T12:03:03.834Z,25.76
2022-08-03T12:05:35.610Z,25.15
2022-08-03T12:08:06.449Z,24.65
2022-08-03T12:10:34.582Z,24.23
2022-08-03T12:13:05.921Z,23.92
2022-08-03T12:15:59.184Z,23.62
2022-08-03T12:18:26.231Z,23.44
2022-08-03T12:21:03.348Z,23.37
2022-08-03T12:23:30.879Z,23.36
2022-08-03T12:26:08.081Z,23.37
2022-08-03T12:28:37.930Z,23.46
2022-08-03T12:31:07.674Z,23.65
2022-08-03T12:33:59.217Z,24.04
2022-08-03T12:36:28.860Z,24.51
2022-08-03T12:38:59.117Z,25.25
2022-08-03T12:41:40.777Z,25.86
2022-08-03T12:44:09.601Z,26.40
2022-08-03T12:46:46.946Z,27.22
2022-08-03T12:49:17.363Z,28.07
2022-08-03T12:51:44.180Z,28.78
2022-08-03T12:54:32.630Z,30.13
2022-08-03T12:56:59.838Z,31.71
2022-08-03T12:59:32.337Z,33.29
2022-08-03T13:02:16.462Z,34.58
2022-08-03T13:04:50.080Z,35.68
2022-08-03T13:07:18.508Z,36.16
2022-08-03T13:09:47.639Z,36.14
2022-08-03T13:12:22.742Z,35.62
2022-08-03T13:14:55.738Z,34.24
2022-08-03T13:17:22.850Z,32.96
2022-08-03T13:19:51.346Z,31.99
2022-08-03T13:22:24.371Z,31.20
2022-08-03T13:24:55.875Z,30.69
2022-08-03T13:28:04.198Z,30.29
2022-08-03T13:30:10.403Z,29.96
2022-08-03T13:32:37.461Z,29.77
2022-08-03T13:35:05.525Z,29.74
2022-08-03T13:37:32.623Z,29.87
2022-08-03T13:40:02.522Z,30.09
2022-08-03T13:42:31.848Z,30.42
2022-08-03T13:44:59.961Z,30.75
2022-08-03T13:47:27.719Z,31.27
2022-08-03T13:50:01.510Z,31.23
2022-08-03T13:52:33.849Z,30.70
2022-08-03T13:55:01.891Z,30.38
2022-08-03T13:58:02.554Z,30.06
2022-08-03T14:00:27.497Z,29.30
2022-08-03T14:03:02.996Z,28.73
2022-08-03T14:05:33.473Z,28.00
2022-08-03T14:08:04.897Z,27.72
2022-08-03T14:10:33.905Z,27.32
2022-08-03T14:13:00.816Z,26.70
2022-08-03T14:15:28.837Z,26.20
2022-08-03T14:17:58.552Z,25.95
2022-08-03T14:20:37.850Z,25.63
2022-08-03T14:23:14.351Z,25.46
2022-08-03T14:25:44.416Z,25.47
2022-08-03T14:28:18.468Z,25.55
2022-08-03T14:30:46.233Z,25.65
2022-08-03T14:33:13.184Z,25.83
2022-08-03T14:35:40.264Z,26.06
2022-08-03T14:38:07.172Z,26.29
2022-08-03T14:40:34.102Z,26.56
2022-08-03T14:43:01.007Z,26.87
2022-08-03T14:45:27.875Z,27.32
2022-08-03T14:50:10.426Z,27.78
2022-08-03T14:50:51.042Z,28.64
2022-08-03T14:53:19.606Z,29.56
2022-08-03T14:55:50.878Z,30.34
2022-08-03T14:58:22.992Z,31.07
2022-08-03T15:00:51.748Z,31.68
2022-08-03T15:03:23.136Z,31.83
2022-08-03T15:05:55.557Z,30.83
2022-08-03T15:08:23.409Z,29.58
2022-08-03T15:10:50.671Z,28.48
2022-08-03T15:13:18.287Z,27.67
2022-08-03T15:15:45.493Z,27.01
2022-08-03T15:18:12.444Z,26.45
2022-08-03T15:20:44.998Z,26.04
2022-08-03T15:23:13.990Z,25.69
2022-08-03T15:26:28.462Z,25.45
2022-08-03T15:28:27.920Z,25.25
2022-08-03T15:33:50.762Z,24.82
2022-08-03T15:36:21.547Z,24.43
2022-08-03T15:38:48.601Z,24.27
2022-08-03T15:41:15.647Z,24.25
2022-08-03T15:43:42.609Z,24.21
2022-08-03T15:46:30.407Z,24.16
2022-08-03T15:48:57.133Z,24.08
2022-08-03T15:51:24.044Z,24.03
2022-08-03T15:53:50.902Z,24.10
2022-08-03T15:56:18.843Z,24.20
2022-08-03T15:59:10.065Z,24.22
2022-08-03T16:01:32.924Z,24.20
2022-08-03T16:03:59.964Z,24.15
2022-08-03T16:06:35.032Z,24.15
2022-08-03T16:09:05.610Z,24.18
2022-08-03T16:11:51.410Z,23.79
2022-08-03T16:14:33.537Z,23.30
2022-08-03T16:17:05.170Z,22.94
2022-08-03T16:19:32.000Z,22.83
2022-08-03T16:21:59.425Z,22.63
2022-08-03T16:24:28.214Z,22.49
2022-08-03T16:26:55.953Z,22.38
2022-08-03T16:29:23.571Z,22.29
2022-08-03T16:31:51.556Z,22.22
2022-08-03T16:34:18.995Z,22.15
2022-08-03T16:36:45.978Z,22.08
2022-08-03T16:39:12.918Z,22.01
2022-08-03T16:41:53.909Z,21.95
2022-08-03T16:44:27.031Z,21.88
2022-08-03T16:46:55.293Z,21.78
2022-08-03T16:49:53.763Z,21.71
2022-08-03T16:52:09.241Z,21.63
2022-08-03T16:54:39.913Z,21.58
2022-08-03T16:57:07.554Z,21.51
2022-08-03T16:59:36.708Z,21.46
2022-08-03T17:02:09.702Z,21.42
2022-08-03T17:04:36.990Z,21.37
2022-08-03T17:07:18.686Z,21.33
2022-08-03T17:09:47.861Z,21.29
2022-08-03T17:12:16.781Z,21.25
2022-08-03T17:14:45.000Z,21.22
2022-08-03T17:17:47.654Z,21.19
2022-08-03T17:20:21.773Z,21.13
2022-08-03T17:23:03.232Z,21.07
2022-08-03T17:25:39.759Z,21.05
2022-08-03T17:28:48.490Z,21.03
2022-08-03T17:31:23.496Z,20.98
2022-08-03T17:34:01.669Z,20.95
2022-08-03T17:37:01.661Z,20.86
2022-08-03T17:39:23.547Z,20.78
2022-08-03T17:42:00.844Z,20.72
2022-08-03T17:44:41.453Z,20.67
2022-08-03T17:47:11.077Z,20.63
2022-08-03T17:49:40.048Z,20.60
2022-08-03T17:52:41.510Z,20.56
2022-08-03T17:55:57.871Z,20.51
2022-08-03T17:58:17.583Z,20.48
2022-08-03T18:02:00.351Z,20.47
2022-08-03T18:03:59.259Z,20.40
2022-08-03T18:06:31.284Z,20.38
2022-08-03T18:09:04.664Z,20.35
2022-08-03T18:15:00.676Z,20.29
2022-08-03T18:17:55.001Z,20.24
2022-08-03T18:20:31.282Z,20.19
2022-08-03T18:23:04.814Z,20.14
2022-08-03T18:25:56.132Z,20.10
2022-08-03T18:28:27.027Z,20.05
2022-08-03T18:30:55.284Z,20.01
2022-08-03T18:34:19.856Z,19.96
2022-08-03T18:36:21.755Z,19.91
2022-08-03T18:38:53.879Z,19.86
2022-08-03T18:41:33.311Z,19.83
2022-08-03T18:44:08.349Z,19.79
2022-08-03T18:50:21.343Z,19.69
2022-08-03T18:53:02.781Z,19.64
2022-08-03T18:55:35.814Z,19.59
2022-08-03T18:58:18.206Z,19.53
2022-08-03T19:01:15.255Z,19.46
2022-08-03T19:03:58.489Z,19.39
2022-08-03T19:06:29.834Z,19.35
2022-08-03T19:09:09.490Z,19.32
2022-08-03T19:12:13.274Z,19.27
2022-08-03T19:14:41.696Z,19.22
2022-08-03T19:17:11.369Z,19.16
2022-08-03T19:19:44.554Z,19.15
2022-08-03T19:22:16.040Z,19.11
2022-08-03T19:24:45.650Z,19.11
2022-08-03T19:27:15.881Z,19.09
2022-08-03T19:29:59.387Z,19.07
2022-08-03T19:32:32.255Z,19.05
2022-08-03T19:35:01.953Z,19.03
2022-08-03T19:37:38.263Z,19.02
2022-08-03T19:40:10.236Z,19.01
2022-08-03T19:42:44.636Z,19.01
2022-08-03T19:45:15.626Z,19.00
2022-08-03T19:47:52.542Z,18.97
2022-08-03T19:50:20.656Z,18.95
2022-08-03T19:52:49.730Z,18.95
2022-08-03T19:55:17.915Z,18.95
2022-08-03T19:57:49.150Z,18.93
2022-08-03T20:00:19.978Z,18.93
2022-08-03T20:02:53.222Z,18.92
2022-08-03T20:05:20.530Z,18.93
2022-08-03T20:07:48.047Z,18.92
2022-08-03T20:10:17.644Z,18.92
2022-08-03T20:12:46.382Z,18.91
2022-08-03T20:15:14.023Z,18.92
2022-08-03T20:17:55.416Z,18.93
2022-08-03T20:20:37.333Z,18.92
2022-08-03T20:23:11.493Z,18.91
2022-08-03T20:25:55.692Z,18.94
2022-08-03T20:28:50.180Z,18.93
2022-08-03T20:31:20.806Z,18.91
2022-08-03T20:33:49.618Z,18.95
2022-08-03T20:36:18.572Z,19.00
2022-08-03T20:38:47.856Z,19.01
2022-08-03T20:41:18.716Z,19.01
2022-08-03T20:43:49.292Z,19.00
2022-08-03T20:46:32.639Z,18.99
2022-08-03T20:49:06.702Z,18.97
2022-08-03T20:51:48.941Z,18.95
2022-08-03T20:54:22.768Z,18.89
2022-08-03T20:56:58.098Z,18.85
2022-08-03T20:59:35.063Z,18.80
2022-08-03T21:02:05.570Z,18.77
2022-08-03T21:04:32.424Z,18.72
2022-08-03T21:07:03.744Z,18.70
2022-08-03T21:09:56.051Z,18.68
2022-08-03T21:12:33.919Z,18.66
2022-08-03T21:13:00.462Z,19.74
2022-08-03T21:13:04.918Z,20.31
2022-08-03T21:15:06.145Z,18.64
2022-08-03T21:17:40.974Z,18.62
2022-08-03T21:20:10.826Z,18.63
2022-08-03T21:22:39.241Z,18.62
2022-08-03T21:25:09.353Z,18.61
2022-08-03T21:27:37.289Z,18.62
2022-08-03T21:30:09.959Z,18.63
2022-08-03T21:32:40.347Z,18.63
2022-08-03T21:35:10.713Z,18.61
2022-08-03T21:37:42.112Z,18.65
2022-08-03T21:40:13.272Z,18.66
2022-08-03T21:42:41.539Z,18.70
2022-08-03T21:45:16.887Z,18.71
2022-08-03T21:47:45.316Z,18.74
2022-08-03T21:50:13.618Z,18.79
2022-08-03T21:52:43.604Z,18.84
2022-08-03T21:55:20.591Z,18.86
2022-08-03T21:57:53.196Z,18.88
2022-08-03T22:00:23.200Z,18.90
2022-08-03T22:02:57.237Z,18.90
2022-08-03T22:05:42.574Z,18.92
2022-08-03T22:08:14.886Z,18.92
2022-08-03T22:10:45.087Z,18.92
2022-08-03T22:13:14.408Z,18.93
2022-08-03T22:15:42.094Z,18.95
2022-08-03T22:18:09.465Z,18.97
2022-08-03T22:20:37.806Z,18.98
2022-08-03T22:23:06.918Z,19.01
2022-08-03T22:25:36.708Z,19.01
2022-08-03T22:28:10.414Z,19.04
2022-08-03T22:30:38.876Z,19.05
2022-08-03T22:33:11.509Z,19.08
2022-08-03T22:35:47.791Z,19.08
2022-08-03T22:38:17.578Z,19.09
2022-08-03T22:40:47.083Z,19.10
2022-08-03T22:43:14.445Z,19.11
2022-08-03T22:46:09.463Z,19.10
2022-08-03T22:48:34.463Z,19.06
2022-08-03T22:51:02.775Z,19.03
2022-08-03T22:53:30.137Z,19.00
2022-08-03T22:55:59.087Z,18.99
2022-08-03T22:58:25.905Z,18.97
2022-08-03T23:00:56.431Z,18.93
2022-08-03T23:04:00.805Z,18.92
2022-08-03T23:06:21.646Z,18.90
2022-08-03T23:08:50.321Z,18.94
2022-08-03T23:11:18.818Z,18.98
2022-08-03T23:13:52.328Z,19.04
2022-08-03T23:16:29.625Z,19.11
2022-08-03T23:18:59.545Z,19.18
2022-08-03T23:21:53.822Z,19.22
2022-08-03T23:24:26.083Z,19.28
2022-08-03T23:26:58.167Z,19.35
2022-08-03T23:29:26.623Z,19.38
2022-08-03T23:31:54.339Z,19.44
2022-08-03T23:34:41.947Z,19.47
2022-08-03T23:37:09.542Z,19.51
2022-08-03T23:39:38.088Z,19.55
2022-08-03T23:42:06.095Z,19.57
2022-08-03T23:44:36.776Z,19.61
2022-08-03T23:47:03.866Z,19.62
2022-08-03T23:49:30.837Z,19.64
2022-08-03T23:52:14.678Z,19.65
2022-08-03T23:54:41.512Z,19.67
2022-08-03T23:57:17.319Z,19.69
